createdAt,value
2023-07-30T00:01:50.462Z,101237.23
2023-07-30T00:04:18.640Z,101240.49
2023-07-30T00:06:46.825Z,101238.01
2023-07-30T00:09:14.921Z,101237.16
2023-07-30T00:11:43.152Z,101228.52
2023-07-30T00:14:11.227Z,101232.22
2023-07-30T00:16:39.912Z,101246.67
2023-07-30T00:19:07.977Z,101254.91
2023-07-30T00:21:36.590Z,101258.64
2023-07-30T00:24:05.093Z,101249.98
2023-07-30T00:26:33.131Z,101257.82
2023-07-30T00:29:01.285Z,101255.37
2023-07-30T00:31:29.361Z,101246.67
2023-07-30T00:33:57.467Z,101246.67
2023-07-30T00:36:25.525Z,101261.98
2023-07-30T00:38:53.595Z,101263.61
2023-07-30T00:41:21.704Z,101261.52
2023-07-30T00:43:49.738Z,101262.73
2023-07-30T00:46:17.863Z,101277.57
2023-07-30T00:48:45.914Z,101274.63
2023-07-30T00:51:13.952Z,101277.93
2023-07-30T00:53:42.020Z,101276.66
2023-07-30T00:56:10.007Z,101276.63
2023-07-30T00:58:38.088Z,101291.04
2023-07-30T01:01:06.344Z,101293.13
2023-07-30T01:03:35.111Z,101278.26
2023-07-30T01:06:03.196Z,101282.48
2023-07-30T01:08:31.227Z,101286.20
2023-07-30T01:10:59.794Z,101288.72
2023-07-30T01:13:28.263Z,101282.51
2023-07-30T01:15:56.279Z,101275.91
2023-07-30T01:18:24.423Z,101275.19
2023-07-30T01:20:55.777Z,101276.07
2023-07-30T01:23:23.834Z,101283.49
2023-07-30T01:25:51.941Z,101276.85
2023-07-30T01:28:19.968Z,101283.45
2023-07-30T01:30:48.071Z,101277.57
2023-07-30T01:33:16.104Z,101286.66
2023-07-30T01:35:44.651Z,101282.51
2023-07-30T01:38:12.946Z,101291.20
2023-07-30T01:40:41.142Z,101290.84
2023-07-30T01:43:09.732Z,101281.33
2023-07-30T01:45:37.853Z,101287.12
2023-07-30T01:48:05.987Z,101274.70
2023-07-30T01:50:34.171Z,101265.93
2023-07-30T01:53:02.242Z,101276.69
2023-07-30T01:55:30.340Z,101273.35
2023-07-30T01:57:58.344Z,101278.72
2023-07-30T02:00:26.358Z,101274.14
2023-07-30T02:02:54.548Z,101265.84
2023-07-30T02:05:22.674Z,101262.50
2023-07-30T02:07:50.799Z,101261.22
2023-07-30T02:10:18.941Z,101264.95
2023-07-30T02:12:47.065Z,101255.83
2023-07-30T02:15:15.118Z,101253.34
2023-07-30T02:17:43.180Z,101243.83
2023-07-30T02:20:11.636Z,101250.89
2023-07-30T02:22:39.689Z,101253.02
2023-07-30T02:25:08.360Z,101250.17
2023-07-30T02:27:36.493Z,101237.84
2023-07-30T02:30:05.401Z,101238.76
2023-07-30T02:32:33.402Z,101242.06
2023-07-30T02:35:01.657Z,101235.46
2023-07-30T02:37:29.669Z,101242.55
2023-07-30T02:39:57.744Z,101247.95
2023-07-30T02:42:25.892Z,101246.67
2023-07-30T02:44:53.951Z,101241.70
2023-07-30T02:47:22.110Z,101251.15
2023-07-30T02:49:50.359Z,101244.91
2023-07-30T02:52:18.490Z,101249.52
2023-07-30T02:54:46.543Z,101257.73
2023-07-30T02:57:15.505Z,101254.00
2023-07-30T02:59:43.566Z,101257.27
2023-07-30T03:02:11.726Z,101254.00
2023-07-30T03:04:39.839Z,101246.94
2023-07-30T03:07:08.171Z,101266.78
2023-07-30T03:09:36.340Z,101267.63
2023-07-30T03:12:04.555Z,101269.66
2023-07-30T03:14:32.758Z,101269.27
2023-07-30T03:17:00.820Z,101274.63
2023-07-30T03:19:28.973Z,101270.12
2023-07-30T03:21:57.053Z,101274.70
2023-07-30T03:24:25.117Z,101275.87
2023-07-30T03:26:53.136Z,101275.09
2023-07-30T03:29:21.354Z,101267.63
2023-07-30T03:31:49.437Z,101270.54
2023-07-30T03:34:17.431Z,101276.72
2023-07-30T03:36:45.479Z,101280.48
2023-07-30T03:39:13.479Z,101276.33
2023-07-30T03:41:41.571Z,101276.69
2023-07-30T03:44:09.734Z,101271.78
2023-07-30T03:46:37.925Z,101264.33
2023-07-30T03:49:05.985Z,101275.09
2023-07-30T03:51:34.735Z,101272.17
2023-07-30T03:54:02.968Z,101279.60
2023-07-30T03:56:31.187Z,101277.15
2023-07-30T03:58:59.379Z,101273.42
2023-07-30T04:01:27.447Z,101283.36
2023-07-30T04:03:55.563Z,101282.18
2023-07-30T04:06:23.595Z,101293.27
2023-07-30T04:08:51.664Z,101286.27
2023-07-30T04:11:19.882Z,101278.75
2023-07-30T04:13:47.954Z,101280.84
2023-07-30T04:16:16.003Z,101279.53
2023-07-30T04:18:44.147Z,101272.47
2023-07-30T04:21:12.982Z,101271.69
2023-07-30T04:23:41.094Z,101279.60
2023-07-30T04:26:09.313Z,101281.69
2023-07-30T04:28:37.438Z,101283.00
2023-07-30T04:31:05.586Z,101287.55
2023-07-30T04:33:34.060Z,101290.45
2023-07-30T04:36:02.301Z,101297.13
2023-07-30T04:38:31.538Z,101303.34
2023-07-30T04:41:02.592Z,101303.37
2023-07-30T04:43:31.257Z,101306.21
2023-07-30T04:45:59.412Z,101318.24
2023-07-30T04:48:27.614Z,101313.30
2023-07-30T04:50:55.653Z,101323.25
2023-07-30T04:53:23.732Z,101326.59
2023-07-30T04:55:59.714Z,101320.34
2023-07-30T04:58:27.803Z,101331.59
2023-07-30T05:00:55.924Z,101332.37
2023-07-30T05:03:24.260Z,101335.70
2023-07-30T05:05:52.327Z,101329.95
2023-07-30T05:08:20.417Z,101329.13
2023-07-30T05:10:48.509Z,101325.86
2023-07-30T05:13:16.698Z,101340.34
2023-07-30T05:15:45.545Z,101324.62
2023-07-30T05:18:13.730Z,101333.80
2023-07-30T05:20:41.752Z,101329.66
2023-07-30T05:23:09.937Z,101332.56
2023-07-30T05:25:38.161Z,101335.93
2023-07-30T05:28:06.224Z,101335.97
2023-07-30T05:30:34.324Z,101332.70
2023-07-30T05:33:02.403Z,101343.06
2023-07-30T05:35:32.975Z,101340.22
2023-07-30T05:38:02.060Z,101343.98
2023-07-30T05:40:30.176Z,101331.16
2023-07-30T05:42:58.219Z,101336.95
2023-07-30T05:45:26.283Z,101335.73
2023-07-30T05:47:54.471Z,101333.71
2023-07-30T05:50:22.519Z,101332.89
2023-07-30T05:52:50.565Z,101336.26
2023-07-30T05:55:18.676Z,101344.56
2023-07-30T05:57:46.761Z,101349.96
2023-07-30T06:00:14.929Z,101350.81
2023-07-30T06:02:43.123Z,101358.27
2023-07-30T06:05:11.250Z,101360.36
2023-07-30T06:07:39.505Z,101363.37
2023-07-30T06:10:08.190Z,101370.46
2023-07-30T06:12:36.283Z,101361.80
2023-07-30T06:15:04.430Z,101361.83
2023-07-30T06:17:34.221Z,101373.01
2023-07-30T06:20:02.999Z,101379.26
2023-07-30T06:22:30.971Z,101388.41
2023-07-30T06:24:58.943Z,101377.98
2023-07-30T06:27:26.899Z,101382.16
2023-07-30T06:29:55.024Z,101380.59
2023-07-30T06:32:23.068Z,101378.14
2023-07-30T06:34:51.251Z,101390.24
2023-07-30T06:37:19.381Z,101386.19
2023-07-30T06:39:47.391Z,101381.22
2023-07-30T06:42:15.468Z,101383.73
2023-07-30T06:44:43.482Z,101385.83
2023-07-30T06:47:11.688Z,101390.41
2023-07-30T06:49:39.737Z,101377.62
2023-07-30T06:52:08.080Z,101389.72
2023-07-30T06:54:38.199Z,101388.51
2023-07-30T06:57:11.442Z,101392.73
2023-07-30T06:59:39.471Z,101398.94
2023-07-30T07:02:08.087Z,101410.19
2023-07-30T07:04:36.101Z,101406.10
2023-07-30T07:07:06.209Z,101401.59
2023-07-30T07:09:34.439Z,101406.98
2023-07-30T07:12:02.632Z,101407.05
2023-07-30T07:14:30.797Z,101404.56
2023-07-30T07:16:58.905Z,101406.69
2023-07-30T07:19:27.065Z,101403.32
2023-07-30T07:21:55.119Z,101395.51
2023-07-30T07:24:23.095Z,101403.81
2023-07-30T07:26:51.305Z,101399.69
2023-07-30T07:29:19.500Z,101400.57
2023-07-30T07:31:48.080Z,101404.76
2023-07-30T07:34:16.465Z,101408.91
2023-07-30T07:36:44.518Z,101416.43
2023-07-30T07:39:12.612Z,101402.70
2023-07-30T07:41:40.863Z,101414.77
2023-07-30T07:44:08.978Z,101419.77
2023-07-30T07:46:37.061Z,101411.46
2023-07-30T07:49:05.145Z,101408.95
2023-07-30T07:51:33.325Z,101415.65
2023-07-30T07:54:01.671Z,101413.52
2023-07-30T07:56:29.718Z,101433.07
2023-07-30T07:58:57.782Z,101428.92
2023-07-30T08:01:25.968Z,101418.95
2023-07-30T08:03:54.411Z,101425.20
2023-07-30T08:06:22.604Z,101421.89
2023-07-30T08:08:50.717Z,101420.23
2023-07-30T08:11:18.860Z,101418.55
2023-07-30T08:13:48.373Z,101421.08
2023-07-30T08:16:16.489Z,101423.13
2023-07-30T08:18:44.690Z,101417.28
2023-07-30T08:21:12.872Z,101427.29
2023-07-30T08:23:40.982Z,101437.26
2023-07-30T08:26:09.033Z,101435.16
2023-07-30T08:28:37.141Z,101433.11
2023-07-30T08:31:05.662Z,101433.11
2023-07-30T08:33:34.258Z,101433.11
2023-07-30T08:36:03.028Z,101434.77
2023-07-30T08:38:31.647Z,101440.98
2023-07-30T08:40:59.725Z,101445.99
2023-07-30T08:43:27.944Z,101454.72
2023-07-30T08:45:55.994Z,101450.57
2023-07-30T08:48:24.172Z,101448.08
2023-07-30T08:50:52.239Z,101433.50
2023-07-30T08:53:20.365Z,101423.95
2023-07-30T08:55:48.434Z,101431.02
2023-07-30T08:58:16.808Z,101427.29
2023-07-30T09:00:44.946Z,101412.64
2023-07-30T09:03:13.391Z,101421.37
2023-07-30T09:05:41.762Z,101418.75
2023-07-30T09:08:09.873Z,101418.33
2023-07-30T09:10:38.082Z,101417.38
2023-07-30T09:13:06.145Z,101423.16
2023-07-30T09:15:40.923Z,101423.59
2023-07-30T09:18:10.232Z,101423.88
2023-07-30T09:20:45.195Z,101431.05
2023-07-30T09:23:13.700Z,101428.23
2023-07-30T09:25:41.795Z,101428.59
2023-07-30T09:28:10.847Z,101437.29
2023-07-30T09:30:38.869Z,101433.14
2023-07-30T09:33:06.899Z,101436.90
2023-07-30T09:35:35.448Z,101446.97
2023-07-30T09:38:05.782Z,101442.91
2023-07-30T09:40:38.385Z,101448.77
2023-07-30T09:43:06.613Z,101445.89
2023-07-30T09:45:38.628Z,101440.86
2023-07-30T09:48:07.703Z,101447.95
2023-07-30T09:50:36.461Z,101449.23
2023-07-30T09:53:05.045Z,101447.13
2023-07-30T09:55:33.138Z,101457.99
2023-07-30T09:58:01.110Z,101464.69
2023-07-30T10:00:30.078Z,101462.60
2023-07-30T10:02:58.157Z,101464.69
2023-07-30T10:05:27.482Z,101463.84
2023-07-30T10:08:01.248Z,101456.74
2023-07-30T10:10:29.579Z,101445.07
2023-07-30T10:12:58.323Z,101450.08
2023-07-30T10:15:26.444Z,101439.61
2023-07-30T10:17:54.571Z,101443.66
2023-07-30T10:20:23.985Z,101444.48
2023-07-30T10:22:58.884Z,101449.48
2023-07-30T10:25:50.647Z,101446.84
2023-07-30T10:28:47.970Z,101440.01
2023-07-30T10:31:16.042Z,101441.41
2023-07-30T10:33:55.595Z,101450.99
2023-07-30T10:36:47.594Z,101444.39
2023-07-30T10:39:16.534Z,101444.09
2023-07-30T10:41:48.514Z,101445.37
2023-07-30T10:44:21.306Z,101440.59
2023-07-30T10:46:49.464Z,101442.13
2023-07-30T10:49:17.818Z,101449.84
2023-07-30T10:51:45.873Z,101458.88
2023-07-30T10:54:13.878Z,101452.62
2023-07-30T10:56:42.936Z,101454.42
2023-07-30T10:59:11.156Z,101468.74
2023-07-30T11:01:41.482Z,101471.75
2023-07-30T11:04:20.741Z,101470.09
2023-07-30T11:06:50.202Z,101482.09
2023-07-30T11:09:25.450Z,101472.93
2023-07-30T11:11:55.206Z,101464.95
2023-07-30T11:14:24.752Z,101465.51
2023-07-30T11:16:57.965Z,101477.28
2023-07-30T11:19:26.209Z,101469.04
2023-07-30T11:21:55.092Z,101471.88
2023-07-30T11:24:23.580Z,101474.83
2023-07-30T11:27:01.332Z,101466.45
2023-07-30T11:29:29.817Z,101476.49
2023-07-30T11:32:01.703Z,101470.97
2023-07-30T11:34:29.934Z,101478.33
2023-07-30T11:36:58.238Z,101475.32
2023-07-30T11:39:26.591Z,101469.79
2023-07-30T11:41:54.810Z,101461.13
2023-07-30T11:44:37.487Z,101457.89
2023-07-30T11:47:06.872Z,101472.77
2023-07-30T11:49:35.186Z,101462.63
2023-07-30T11:52:12.877Z,101450.86
2023-07-30T11:54:41.078Z,101451.16
2023-07-30T11:57:09.369Z,101466.03
2023-07-30T11:59:38.594Z,101461.32
2023-07-30T12:02:06.860Z,101462.73
2023-07-30T12:04:50.812Z,101459.69
2023-07-30T12:07:27.356Z,101463.22
2023-07-30T12:09:55.447Z,101466.39
2023-07-30T12:12:27.774Z,101472.67
2023-07-30T12:14:56.996Z,101476.07
2023-07-30T12:17:25.288Z,101459.88
2023-07-30T12:19:53.441Z,101470.45
2023-07-30T12:22:22.213Z,101474.17
2023-07-30T12:24:50.267Z,101480.05
2023-07-30T12:27:18.557Z,101459.07
2023-07-30T12:29:46.768Z,101460.96
2023-07-30T12:32:15.149Z,101477.37
2023-07-30T12:34:43.343Z,101462.96
2023-07-30T12:37:12.294Z,101463.45
2023-07-30T12:39:40.647Z,101465.70
2023-07-30T12:42:08.923Z,101455.47
2023-07-30T12:44:37.180Z,101467.21
2023-07-30T12:47:07.296Z,101466.52
2023-07-30T12:49:35.620Z,101472.15
2023-07-30T12:52:03.773Z,101473.09
2023-07-30T12:54:31.977Z,101472.21
2023-07-30T12:57:00.053Z,101468.09
2023-07-30T12:59:28.118Z,101466.26
2023-07-30T13:01:56.268Z,101466.45
2023-07-30T13:04:26.235Z,101457.66
2023-07-30T13:06:54.439Z,101466.26
2023-07-30T13:09:22.914Z,101457.92
2023-07-30T13:11:51.083Z,101452.40
2023-07-30T13:14:19.720Z,101458.88
2023-07-30T13:16:47.800Z,101458.88
2023-07-30T13:19:16.125Z,101460.64
2023-07-30T13:21:44.266Z,101465.15
2023-07-30T13:24:12.356Z,101456.65
2023-07-30T13:26:41.220Z,101458.41
2023-07-30T13:29:09.397Z,101460.05
2023-07-30T13:31:38.489Z,101465.51
2023-07-30T13:34:07.020Z,101455.34
2023-07-30T13:36:35.041Z,101476.56
2023-07-30T13:39:03.242Z,101461.00
2023-07-30T13:41:31.398Z,101467.93
2023-07-30T13:43:59.530Z,101473.98
2023-07-30T13:46:27.559Z,101477.51
2023-07-30T13:48:55.597Z,101470.19
2023-07-30T13:51:23.811Z,101477.51
2023-07-30T13:53:51.990Z,101478.55
2023-07-30T13:56:20.341Z,101474.66
2023-07-30T13:58:48.505Z,101483.27
2023-07-30T14:01:18.276Z,101478.55
2023-07-30T14:03:46.638Z,101477.25
2023-07-30T14:06:14.902Z,101477.57
2023-07-30T14:08:43.112Z,101469.86
2023-07-30T14:11:11.288Z,101473.32
2023-07-30T14:13:39.456Z,101473.68
2023-07-30T14:16:07.771Z,101468.65
2023-07-30T14:18:35.866Z,101471.46
2023-07-30T14:21:05.359Z,101464.40
2023-07-30T14:23:33.600Z,101468.06
2023-07-30T14:26:01.937Z,101468.65
2023-07-30T14:28:30.304Z,101474.89
2023-07-30T14:30:58.389Z,101470.64
2023-07-30T14:33:26.487Z,101464.13
2023-07-30T14:35:54.631Z,101476.98
2023-07-30T14:38:22.692Z,101480.94
2023-07-30T14:40:50.815Z,101488.27
2023-07-30T14:43:18.838Z,101476.82
2023-07-30T14:45:46.972Z,101470.34
2023-07-30T14:48:16.257Z,101472.18
2023-07-30T14:50:44.425Z,101473.23
2023-07-30T14:53:13.175Z,101471.30
2023-07-30T14:55:41.481Z,101476.43
2023-07-30T14:58:11.386Z,101476.66
2023-07-30T15:00:39.813Z,101467.60
2023-07-30T15:03:08.337Z,101476.13
2023-07-30T15:05:36.665Z,101470.84
2023-07-30T15:08:05.249Z,101468.78
2023-07-30T15:10:33.513Z,101469.27
2023-07-30T15:13:01.671Z,101475.68
2023-07-30T15:15:29.729Z,101477.48
2023-07-30T15:17:58.016Z,101478.00
2023-07-30T15:20:26.903Z,101471.46
2023-07-30T15:22:54.980Z,101472.02
2023-07-30T15:25:23.215Z,101471.33
2023-07-30T15:27:51.411Z,101463.09
2023-07-30T15:30:19.567Z,101465.70
2023-07-30T15:32:47.932Z,101472.48
2023-07-30T15:35:17.858Z,101472.57
2023-07-30T15:37:48.000Z,101471.79
2023-07-30T15:40:16.364Z,101471.03
2023-07-30T15:42:44.603Z,101471.49
2023-07-30T15:45:12.960Z,101475.71
2023-07-30T15:47:41.201Z,101477.80
2023-07-30T15:50:09.984Z,101480.38
2023-07-30T15:52:38.157Z,101476.33
2023-07-30T15:55:06.626Z,101480.13
2023-07-30T15:57:34.948Z,101477.70
2023-07-30T16:00:03.073Z,101473.59
2023-07-30T16:02:31.774Z,101474.44
2023-07-30T16:05:00.312Z,101474.86
2023-07-30T16:07:28.457Z,101480.26
2023-07-30T16:09:56.584Z,101463.13
2023-07-30T16:12:24.749Z,101465.70
2023-07-30T16:14:56.464Z,101465.31
2023-07-30T16:17:24.945Z,101454.49
2023-07-30T16:19:53.066Z,101459.95
2023-07-30T16:22:21.422Z,101464.56
2023-07-30T16:24:50.616Z,101459.59
2023-07-30T16:27:21.869Z,101470.05
2023-07-30T16:29:49.981Z,101475.55
2023-07-30T16:32:19.009Z,101462.66
2023-07-30T16:34:47.166Z,101472.31
2023-07-30T16:37:21.098Z,101476.52
2023-07-30T16:39:52.313Z,101468.22
2023-07-30T16:42:20.392Z,101476.59
2023-07-30T16:44:54.212Z,101481.23
2023-07-30T16:47:23.378Z,101477.54
2023-07-30T16:49:51.966Z,101484.24
2023-07-30T16:52:20.244Z,101489.24
2023-07-30T16:54:48.355Z,101497.19
2023-07-30T16:57:16.625Z,101495.52
2023-07-30T16:59:44.917Z,101498.47
2023-07-30T17:02:13.014Z,101502.65
2023-07-30T17:04:41.289Z,101500.63
2023-07-30T17:07:09.575Z,101500.20
2023-07-30T17:09:37.744Z,101501.87
2023-07-30T17:12:06.215Z,101502.72
2023-07-30T17:14:34.336Z,101511.97
2023-07-30T17:17:02.704Z,101510.76
2023-07-30T17:19:30.821Z,101518.28
2023-07-30T17:21:59.196Z,101522.47
2023-07-30T17:24:27.443Z,101528.74
2023-07-30T17:26:55.616Z,101519.20
2023-07-30T17:29:23.787Z,101521.29
2023-07-30T17:31:51.887Z,101527.99
2023-07-30T17:34:20.961Z,101521.75
2023-07-30T17:36:48.939Z,101529.76
2023-07-30T17:39:17.026Z,101525.15
2023-07-30T17:41:45.169Z,101529.33
2023-07-30T17:44:13.379Z,101530.61
2023-07-30T17:46:41.720Z,101534.79
2023-07-30T17:49:10.010Z,101545.22
2023-07-30T17:51:38.159Z,101532.77
2023-07-30T17:54:06.220Z,101538.20
2023-07-30T17:56:34.390Z,101547.74
2023-07-30T17:59:02.573Z,101551.11
2023-07-30T18:01:30.646Z,101556.11
2023-07-30T18:03:58.904Z,101558.20
2023-07-30T18:06:27.251Z,101562.81
2023-07-30T18:08:55.418Z,101552.41
2023-07-30T18:11:23.569Z,101555.33
2023-07-30T18:13:51.772Z,101556.99
2023-07-30T18:16:20.004Z,101559.12
2023-07-30T18:18:48.071Z,101566.97
2023-07-30T18:21:16.255Z,101567.00
2023-07-30T18:23:44.568Z,101573.24
2023-07-30T18:26:12.890Z,101579.48
2023-07-30T18:28:41.179Z,101579.48
2023-07-30T18:31:09.574Z,101580.34
2023-07-30T18:33:37.695Z,101574.91
2023-07-30T18:36:06.127Z,101582.82
2023-07-30T18:38:35.395Z,101589.88
2023-07-30T18:41:07.140Z,101588.61
2023-07-30T18:43:35.453Z,101598.62
2023-07-30T18:46:03.583Z,101594.82
2023-07-30T18:48:32.271Z,101597.30
2023-07-30T18:51:00.401Z,101599.40
2023-07-30T18:53:29.887Z,101608.13
2023-07-30T18:55:58.028Z,101605.65
2023-07-30T18:58:26.309Z,101612.71
2023-07-30T19:00:54.560Z,101622.26
2023-07-30T19:03:22.841Z,101610.95
2023-07-30T19:05:55.699Z,101612.61
2023-07-30T19:08:25.303Z,101618.40
2023-07-30T19:10:53.610Z,101614.24
2023-07-30T19:13:22.090Z,101617.94
2023-07-30T19:15:50.628Z,101624.15
2023-07-30T19:18:18.864Z,101629.48
2023-07-30T19:20:47.326Z,101638.99
2023-07-30T19:23:18.112Z,101639.75
2023-07-30T19:25:55.585Z,101643.90
2023-07-30T19:28:27.218Z,101641.35
2023-07-30T19:30:55.558Z,101638.77
2023-07-30T19:33:23.838Z,101640.40
2023-07-30T19:35:52.415Z,101645.34
2023-07-30T19:38:23.404Z,101650.70
2023-07-30T19:40:56.877Z,101654.40
2023-07-30T19:43:27.776Z,101662.24
2023-07-30T19:45:56.146Z,101662.18
2023-07-30T19:48:27.908Z,101659.20
2023-07-30T19:50:56.598Z,101671.16
2023-07-30T19:53:24.913Z,101671.92
2023-07-30T19:55:53.345Z,101671.49
2023-07-30T19:58:32.228Z,101670.22
2023-07-30T20:01:01.471Z,101681.80
2023-07-30T20:03:30.786Z,101670.61
2023-07-30T20:06:02.845Z,101681.44
2023-07-30T20:08:31.420Z,101680.16
2023-07-30T20:10:59.785Z,101679.34
2023-07-30T20:13:29.928Z,101685.09
2023-07-30T20:16:01.164Z,101678.00
2023-07-30T20:18:32.925Z,101686.24
2023-07-30T20:21:01.292Z,101688.23
2023-07-30T20:23:41.539Z,101679.44
2023-07-30T20:26:18.847Z,101686.47
2023-07-30T20:29:08.339Z,101679.80
2023-07-30T20:31:39.092Z,101674.30
2023-07-30T20:34:10.711Z,101685.81
2023-07-30T20:36:39.589Z,101676.20
2023-07-30T20:39:08.002Z,101682.38
2023-07-30T20:41:40.910Z,101677.34
2023-07-30T20:44:10.410Z,101685.95
2023-07-30T20:46:39.009Z,101692.91
2023-07-30T20:49:08.459Z,101690.39
2023-07-30T20:51:36.678Z,101695.69
2023-07-30T20:54:07.642Z,101694.02
2023-07-30T20:56:35.958Z,101693.89
2023-07-30T20:59:04.728Z,101692.59
2023-07-30T21:01:33.320Z,101702.06
2023-07-30T21:04:01.594Z,101699.09
2023-07-30T21:06:29.696Z,101695.73
2023-07-30T21:08:57.931Z,101695.69
2023-07-30T21:11:26.807Z,101689.84
2023-07-30T21:13:54.952Z,101691.96
2023-07-30T21:16:24.123Z,101695.16
2023-07-30T21:18:53.934Z,101705.50
2023-07-30T21:21:22.185Z,101702.16
2023-07-30T21:23:53.341Z,101700.82
2023-07-30T21:26:30.200Z,101694.16
2023-07-30T21:28:58.521Z,101694.84
2023-07-30T21:31:29.498Z,101686.93
2023-07-30T21:33:57.695Z,101694.28
2023-07-30T21:36:25.917Z,101685.88
2023-07-30T21:38:54.028Z,101699.84
2023-07-30T21:41:22.096Z,101701.41
2023-07-30T21:43:50.322Z,101690.66
2023-07-30T21:46:18.421Z,101695.98
2023-07-30T21:48:46.605Z,101695.04
2023-07-30T21:51:14.705Z,101696.18
2023-07-30T21:53:45.805Z,101701.38
2023-07-30T21:56:16.464Z,101705.11
2023-07-30T21:58:44.896Z,101705.43
2023-07-30T22:01:13.095Z,101709.52
2023-07-30T22:03:41.177Z,101703.24
2023-07-30T22:06:12.261Z,101708.08
2023-07-30T22:08:40.274Z,101707.20
2023-07-30T22:11:08.456Z,101704.32
2023-07-30T22:13:36.490Z,101712.53
2023-07-30T22:16:10.080Z,101700.89
2023-07-30T22:18:38.166Z,101697.16
2023-07-30T22:21:06.234Z,101703.57
2023-07-30T22:23:34.767Z,101700.53
2023-07-30T22:26:02.827Z,101701.77
2023-07-30T22:28:31.015Z,101700.07
2023-07-30T22:30:59.209Z,101704.19
2023-07-30T22:33:27.300Z,101700.76
2023-07-30T22:35:56.983Z,101712.34
2023-07-30T22:38:25.214Z,101704.35
2023-07-30T22:40:53.237Z,101705.63
2023-07-30T22:43:22.975Z,101707.72
2023-07-30T22:45:51.048Z,101706.02
2023-07-30T22:48:19.132Z,101712.73
2023-07-30T22:50:48.226Z,101712.34
2023-07-30T22:53:16.656Z,101715.27
2023-07-30T22:55:45.576Z,101724.43
2023-07-30T22:58:14.211Z,101723.19
2023-07-30T23:00:42.295Z,101729.07
2023-07-30T23:03:10.445Z,101720.41
2023-07-30T23:05:38.529Z,101724.13
2023-07-30T23:08:06.723Z,101711.74
2023-07-30T23:10:34.904Z,101709.13
2023-07-30T23:13:05.790Z,101707.92
2023-07-30T23:15:33.853Z,101712.17
2023-07-30T23:18:02.537Z,101705.17
2023-07-30T23:20:30.608Z,101701.05
2023-07-30T23:22:58.621Z,101706.84
2023-07-30T23:25:26.728Z,101700.23
2023-07-30T23:27:54.752Z,101699.38
2023-07-30T23:30:22.867Z,101695.66
2023-07-30T23:32:51.098Z,101686.83
2023-07-30T23:35:19.161Z,101687.62
2023-07-30T23:37:47.154Z,101685.16
2023-07-30T23:40:15.288Z,101679.38
2023-07-30T23:42:43.364Z,101672.38
2023-07-30T23:45:11.796Z,101671.07
2023-07-30T23:47:39.963Z,101673.13
2023-07-30T23:50:08.300Z,101663.65
2023-07-30T23:52:36.400Z,101661.20
2023-07-30T23:55:04.863Z,101662.80
2023-07-30T23:57:32.877Z,101662.73
